KABQ/ABQ METAR and TAF weather

Enter ICAO airport designator
Station Type Date Time Source
KABQ METAR 2020/05/29 19:52 UTC NOAA

KABQ 291952Z 18008KT 10SM FEW100 29/04 A3025 RMK AO2 SLP150 CB DSNT N-NE AND SW-W T02940044


Station Type Date Time Source
KABQ Decoded METAR 2020/05/29 19:52 UTC NOAA

ALBUQUERQUE INTERNATIONAL AIRPORT, NM, United States (KABQ) 35-02N 106-36W 1618M
May 29, 2020 - 03:52 PM EDT / 2020.05.29 1952 UTC
Wind: from the S (180 degrees) at 9 MPH (8 KT):0
Visibility: 10 mile(s):0
Sky conditions: mostly clear
Weather: Cumulonimbus clouds observed
Temperature: 84.9 F (29.4 C)
Dew Point: 39.9 F (4.4 C)
Relative Humidity: 20%
Pressure (altimeter): 30.25 in. Hg (1024 hPa)
ob: KABQ 291952Z 18008KT 10SM FEW100 29/04 A3025 RMK AO2 SLP150 CB DSNT N-NE AND SW-W T02940044
cycle: 20

Station Type Date Time Source
KABQ TAF 2020/05/29 18:30 UTC NOAA

TAF KABQ 291729Z 2918/3018 20010KT P6SM FEW100
FM292300 22011G18KT P6SM SCT100
FM300100 25012G22KT P6SM VCSH BKN090
FM300400 10006KT P6SM BKN100
FM301500 19007KT P6SM SCT120

Example: see airport list